sensor_id;sensor_type;location;lat;lon;timestamp;temperature;humidity
50586;DHT22;36542;51.700;8.846;2022-10-20T00:00:20;6.80;99.90
50586;DHT22;36542;51.700;8.846;2022-10-20T00:02:45;6.80;99.90
50586;DHT22;36542;51.700;8.846;2022-10-20T00:05:11;6.80;99.90
50586;DHT22;36542;51.700;8.846;2022-10-20T00:07:36;6.80;99.90
50586;DHT22;36542;51.700;8.846;2022-10-20T00:10:02;6.80;99.90
50586;DHT22;36542;51.700;8.846;2022-10-20T00:12:28;6.70;99.90
50586;DHT22;36542;51.700;8.846;2022-10-20T00:14:53;6.70;99.90
50586;DHT22;36542;51.700;8.846;2022-10-20T00:17:19;6.70;99.90
50586;DHT22;36542;51.700;8.846;2022-10-20T00:19:47;6.70;99.90
50586;DHT22;36542;51.700;8.846;2022-10-20T00:22:13;6.70;99.90
50586;DHT22;36542;51.700;8.846;2022-10-20T00:24:38;6.70;99.90
50586;DHT22;36542;51.700;8.846;2022-10-20T00:27:04;6.70;99.90
50586;DHT22;36542;51.700;8.846;2022-10-20T00:29:30;6.70;99.90
50586;DHT22;36542;51.700;8.846;2022-10-20T00:31:55;6.70;99.90
50586;DHT22;36542;51.700;8.846;2022-10-20T00:34:21;6.60;99.90
50586;DHT22;36542;51.700;8.846;2022-10-20T00:36:47;6.60;99.90
50586;DHT22;36542;51.700;8.846;2022-10-20T00:39:12;6.60;99.90
50586;DHT22;36542;51.700;8.846;2022-10-20T00:41:38;6.70;99.90
50586;DHT22;36542;51.700;8.846;2022-10-20T00:47:11;6.50;99.90
50586;DHT22;36542;51.700;8.846;2022-10-20T00:49:37;6.50;99.90
50586;DHT22;36542;51.700;8.846;2022-10-20T00:52:04;6.50;99.90
50586;DHT22;36542;51.700;8.846;2022-10-20T00:54:30;6.50;99.90
50586;DHT22;36542;51.700;8.846;2022-10-20T00:56:57;6.50;99.90
50586;DHT22;36542;51.700;8.846;2022-10-20T00:59:27;6.50;99.90
50586;DHT22;36542;51.700;8.846;2022-10-20T01:01:54;6.50;99.90
50586;DHT22;36542;51.700;8.846;2022-10-20T01:04:20;6.50;99.90
50586;DHT22;36542;51.700;8.846;2022-10-20T01:06:46;6.40;99.90
50586;DHT22;36542;51.700;8.846;2022-10-20T01:09:11;6.40;99.90
50586;DHT22;36542;51.700;8.846;2022-10-20T01:14:22;6.30;99.90
50586;DHT22;36542;51.700;8.846;2022-10-20T01:17:05;6.20;99.90
50586;DHT22;36542;51.700;8.846;2022-10-20T01:25:45;6.30;99.90
50586;DHT22;36542;51.700;8.846;2022-10-20T01:28:41;6.30;99.90
50586;DHT22;36542;51.700;8.846;2022-10-20T01:31:28;6.20;99.90
50586;DHT22;36542;51.700;8.846;2022-10-20T01:34:26;6.20;99.90
50586;DHT22;36542;51.700;8.846;2022-10-20T01:39:30;6.20;99.90
50586;DHT22;36542;51.700;8.846;2022-10-20T01:42:11;6.20;99.90
50586;DHT22;36542;51.700;8.846;2022-10-20T01:44:41;6.20;99.90
50586;DHT22;36542;51.700;8.846;2022-10-20T01:47:08;6.10;99.90
50586;DHT22;36542;51.700;8.846;2022-10-20T01:49:35;6.10;99.90
50586;DHT22;36542;51.700;8.846;2022-10-20T01:52:01;6.10;99.90
50586;DHT22;36542;51.700;8.846;2022-10-20T01:54:28;6.10;99.90
50586;DHT22;36542;51.700;8.846;2022-10-20T01:57:18;6.00;99.90
50586;DHT22;36542;51.700;8.846;2022-10-20T02:05:39;6.00;99.90
50586;DHT22;36542;51.700;8.846;2022-10-20T02:09:03;6.10;99.90
50586;DHT22;36542;51.700;8.846;2022-10-20T02:11:05;6.10;99.90
50586;DHT22;36542;51.700;8.846;2022-10-20T02:13:34;6.20;99.90
50586;DHT22;36542;51.700;8.846;2022-10-20T02:16:06;6.10;99.90
50586;DHT22;36542;51.700;8.846;2022-10-20T02:18:37;6.10;99.90
50586;DHT22;36542;51.700;8.846;2022-10-20T02:21:06;6.10;99.90
50586;DHT22;36542;51.700;8.846;2022-10-20T02:23:34;6.20;99.90
50586;DHT22;36542;51.700;8.846;2022-10-20T02:26:04;6.20;99.90
50586;DHT22;36542;51.700;8.846;2022-10-20T02:28:33;6.10;99.90
50586;DHT22;36542;51.700;8.846;2022-10-20T02:31:01;6.10;99.90
50586;DHT22;36542;51.700;8.846;2022-10-20T02:33:27;6.10;99.90
50586;DHT22;36542;51.700;8.846;2022-10-20T02:35:58;6.10;99.90
50586;DHT22;36542;51.700;8.846;2022-10-20T02:38:24;6.10;99.90
50586;DHT22;36542;51.700;8.846;2022-10-20T02:40:50;6.10;99.90
50586;DHT22;36542;51.700;8.846;2022-10-20T02:43:15;6.10;99.90
50586;DHT22;36542;51.700;8.846;2022-10-20T02:45:41;6.00;99.90
50586;DHT22;36542;51.700;8.846;2022-10-20T02:48:07;6.00;99.90
50586;DHT22;36542;51.700;8.846;2022-10-20T02:50:36;6.00;99.90
50586;DHT22;36542;51.700;8.846;2022-10-20T02:53:02;6.00;99.90
50586;DHT22;36542;51.700;8.846;2022-10-20T02:55:28;6.00;99.90
50586;DHT22;36542;51.700;8.846;2022-10-20T02:57:54;6.00;99.90
50586;DHT22;36542;51.700;8.846;2022-10-20T03:00:20;6.00;99.90
50586;DHT22;36542;51.700;8.846;2022-10-20T03:02:46;6.10;99.90
50586;DHT22;36542;51.700;8.846;2022-10-20T03:05:15;6.10;99.90
50586;DHT22;36542;51.700;8.846;2022-10-20T03:07:43;6.10;99.90
50586;DHT22;36542;51.700;8.846;2022-10-20T03:10:08;6.10;99.90
50586;DHT22;36542;51.700;8.846;2022-10-20T03:12:34;6.10;99.90
50586;DHT22;36542;51.700;8.846;2022-10-20T03:14:59;6.10;99.90
50586;DHT22;36542;51.700;8.846;2022-10-20T03:17:25;6.10;99.90
50586;DHT22;36542;51.700;8.846;2022-10-20T03:19:50;6.10;99.90
50586;DHT22;36542;51.700;8.846;2022-10-20T03:22:16;6.10;99.90
50586;DHT22;36542;51.700;8.846;2022-10-20T03:24:41;6.00;99.90
50586;DHT22;36542;51.700;8.846;2022-10-20T03:27:07;6.00;99.90
50586;DHT22;36542;51.700;8.846;2022-10-20T03:29:33;6.00;99.90
50586;DHT22;36542;51.700;8.846;2022-10-20T03:31:58;6.00;99.90
50586;DHT22;36542;51.700;8.846;2022-10-20T03:34:24;6.00;99.90
50586;DHT22;36542;51.700;8.846;2022-10-20T03:36:49;6.00;99.90
50586;DHT22;36542;51.700;8.846;2022-10-20T03:39:15;6.10;99.90
50586;DHT22;36542;51.700;8.846;2022-10-20T03:41:40;6.10;99.90
50586;DHT22;36542;51.700;8.846;2022-10-20T03:44:06;6.10;99.90
50586;DHT22;36542;51.700;8.846;2022-10-20T03:46:32;6.10;99.90
50586;DHT22;36542;51.700;8.846;2022-10-20T03:48:57;6.10;99.90
50586;DHT22;36542;51.700;8.846;2022-10-20T03:51:23;6.10;99.90
50586;DHT22;36542;51.700;8.846;2022-10-20T03:53:49;6.10;99.90
50586;DHT22;36542;51.700;8.846;2022-10-20T03:56:17;6.10;99.90
50586;DHT22;36542;51.700;8.846;2022-10-20T03:58:44;6.20;99.90
50586;DHT22;36542;51.700;8.846;2022-10-20T04:01:21;6.10;99.90
50586;DHT22;36542;51.700;8.846;2022-10-20T04:03:48;6.10;99.90
50586;DHT22;36542;51.700;8.846;2022-10-20T04:06:14;6.10;99.90
50586;DHT22;36542;51.700;8.846;2022-10-20T04:08:40;6.20;99.90
50586;DHT22;36542;51.700;8.846;2022-10-20T04:11:05;6.30;99.90
50586;DHT22;36542;51.700;8.846;2022-10-20T04:13:31;6.30;99.90
50586;DHT22;36542;51.700;8.846;2022-10-20T04:15:57;6.30;99.90
50586;DHT22;36542;51.700;8.846;2022-10-20T04:18:22;6.30;99.90
50586;DHT22;36542;51.700;8.846;2022-10-20T04:20:48;6.30;99.90
50586;DHT22;36542;51.700;8.846;2022-10-20T04:23:14;6.30;99.90
50586;DHT22;36542;51.700;8.846;2022-10-20T04:25:40;6.40;99.90
50586;DHT22;36542;51.700;8.846;2022-10-20T04:28:11;6.40;99.90
50586;DHT22;36542;51.700;8.846;2022-10-20T04:30:40;6.40;99.90
50586;DHT22;36542;51.700;8.846;2022-10-20T04:33:06;6.40;99.90
50586;DHT22;36542;51.700;8.846;2022-10-20T04:35:32;6.40;99.90
50586;DHT22;36542;51.700;8.846;2022-10-20T04:37:58;6.30;99.90
50586;DHT22;36542;51.700;8.846;2022-10-20T04:40:23;6.30;99.90
50586;DHT22;36542;51.700;8.846;2022-10-20T04:42:49;6.30;99.90
50586;DHT22;36542;51.700;8.846;2022-10-20T04:45:14;6.30;99.90
50586;DHT22;36542;51.700;8.846;2022-10-20T04:47:40;6.40;99.90
50586;DHT22;36542;51.700;8.846;2022-10-20T04:50:06;6.40;99.90
50586;DHT22;36542;51.700;8.846;2022-10-20T04:52:31;6.30;99.90
50586;DHT22;36542;51.700;8.846;2022-10-20T04:54:57;6.30;99.90
50586;DHT22;36542;51.700;8.846;2022-10-20T04:57:22;6.40;99.90
50586;DHT22;36542;51.700;8.846;2022-10-20T04:59:48;6.40;99.90
50586;DHT22;36542;51.700;8.846;2022-10-20T05:02:14;6.40;99.90
50586;DHT22;36542;51.700;8.846;2022-10-20T05:04:39;6.40;99.90
50586;DHT22;36542;51.700;8.846;2022-10-20T05:07:05;6.40;99.90
50586;DHT22;36542;51.700;8.846;2022-10-20T05:09:30;6.30;99.90
50586;DHT22;36542;51.700;8.846;2022-10-20T05:11:57;6.40;99.90
50586;DHT22;36542;51.700;8.846;2022-10-20T05:14:23;6.30;99.90
50586;DHT22;36542;51.700;8.846;2022-10-20T05:16:49;6.40;99.90
50586;DHT22;36542;51.700;8.846;2022-10-20T05:19:14;6.40;99.90
50586;DHT22;36542;51.700;8.846;2022-10-20T05:21:40;6.40;99.90
50586;DHT22;36542;51.700;8.846;2022-10-20T05:24:06;6.50;99.90
50586;DHT22;36542;51.700;8.846;2022-10-20T05:26:34;6.50;99.90
50586;DHT22;36542;51.700;8.846;2022-10-20T05:29:03;6.60;99.90
50586;DHT22;36542;51.700;8.846;2022-10-20T05:31:28;6.60;99.90
50586;DHT22;36542;51.700;8.846;2022-10-20T05:33:55;6.60;99.90
50586;DHT22;36542;51.700;8.846;2022-10-20T05:36:24;6.60;99.90
50586;DHT22;36542;51.700;8.846;2022-10-20T05:38:51;6.60;99.90
50586;DHT22;36542;51.700;8.846;2022-10-20T05:41:20;6.60;99.90
50586;DHT22;36542;51.700;8.846;2022-10-20T05:43:50;6.70;99.90
50586;DHT22;36542;51.700;8.846;2022-10-20T05:46:17;6.90;99.90
50586;DHT22;36542;51.700;8.846;2022-10-20T05:48:43;7.00;99.90
50586;DHT22;36542;51.700;8.846;2022-10-20T05:51:14;7.00;99.90
50586;DHT22;36542;51.700;8.846;2022-10-20T05:53:40;7.00;99.90
50586;DHT22;36542;51.700;8.846;2022-10-20T05:56:07;7.00;99.90
50586;DHT22;36542;51.700;8.846;2022-10-20T05:58:34;7.00;99.90
50586;DHT22;36542;51.700;8.846;2022-10-20T06:03:31;7.00;99.90
50586;DHT22;36542;51.700;8.846;2022-10-20T06:05:58;7.10;99.90
50586;DHT22;36542;51.700;8.846;2022-10-20T06:08:24;7.10;99.90
50586;DHT22;36542;51.700;8.846;2022-10-20T06:10:49;7.10;99.90
50586;DHT22;36542;51.700;8.846;2022-10-20T06:13:15;7.10;99.90
50586;DHT22;36542;51.700;8.846;2022-10-20T06:15:40;7.10;99.90
50586;DHT22;36542;51.700;8.846;2022-10-20T06:18:06;7.10;99.90
50586;DHT22;36542;51.700;8.846;2022-10-20T06:20:31;7.10;99.90
50586;DHT22;36542;51.700;8.846;2022-10-20T06:22:57;7.10;99.90
50586;DHT22;36542;51.700;8.846;2022-10-20T06:25:22;7.20;99.90
50586;DHT22;36542;51.700;8.846;2022-10-20T06:27:48;7.20;99.90
50586;DHT22;36542;51.700;8.846;2022-10-20T06:30:13;7.20;99.90
50586;DHT22;36542;51.700;8.846;2022-10-20T06:32:39;7.30;99.90
50586;DHT22;36542;51.700;8.846;2022-10-20T06:35:04;7.30;99.90
50586;DHT22;36542;51.700;8.846;2022-10-20T06:37:30;7.30;99.90
50586;DHT22;36542;51.700;8.846;2022-10-20T06:39:56;7.40;99.90
50586;DHT22;36542;51.700;8.846;2022-10-20T06:42:21;7.50;99.90
50586;DHT22;36542;51.700;8.846;2022-10-20T06:44:47;7.60;99.90
50586;DHT22;36542;51.700;8.846;2022-10-20T06:47:12;7.80;99.90
50586;DHT22;36542;51.700;8.846;2022-10-20T06:49:38;7.90;99.90
50586;DHT22;36542;51.700;8.846;2022-10-20T06:52:03;8.00;99.90
50586;DHT22;36542;51.700;8.846;2022-10-20T06:54:29;8.10;99.90
50586;DHT22;36542;51.700;8.846;2022-10-20T06:56:54;8.30;99.90
50586;DHT22;36542;51.700;8.846;2022-10-20T06:59:20;8.40;99.90
50586;DHT22;36542;51.700;8.846;2022-10-20T07:01:45;8.50;99.90
50586;DHT22;36542;51.700;8.846;2022-10-20T07:04:13;8.50;99.90
50586;DHT22;36542;51.700;8.846;2022-10-20T07:06:41;8.50;99.90
50586;DHT22;36542;51.700;8.846;2022-10-20T07:09:10;8.50;99.90
50586;DHT22;36542;51.700;8.846;2022-10-20T07:11:37;8.60;99.90
50586;DHT22;36542;51.700;8.846;2022-10-20T07:14:03;8.60;99.90
50586;DHT22;36542;51.700;8.846;2022-10-20T07:16:32;8.60;99.90
50586;DHT22;36542;51.700;8.846;2022-10-20T07:18:58;8.70;99.90
50586;DHT22;36542;51.700;8.846;2022-10-20T07:21:26;8.80;99.90
50586;DHT22;36542;51.700;8.846;2022-10-20T07:23:52;8.80;99.90
50586;DHT22;36542;51.700;8.846;2022-10-20T07:26:23;8.80;99.90
50586;DHT22;36542;51.700;8.846;2022-10-20T07:28:52;8.80;99.90
50586;DHT22;36542;51.700;8.846;2022-10-20T07:31:27;8.90;99.90
50586;DHT22;36542;51.700;8.846;2022-10-20T07:33:54;8.90;99.90
50586;DHT22;36542;51.700;8.846;2022-10-20T07:36:25;8.90;99.90
50586;DHT22;36542;51.700;8.846;2022-10-20T07:38:52;8.90;99.90
50586;DHT22;36542;51.700;8.846;2022-10-20T07:41:18;8.90;99.90
50586;DHT22;36542;51.700;8.846;2022-10-20T07:43:44;9.00;99.90
50586;DHT22;36542;51.700;8.846;2022-10-20T07:46:11;9.00;99.90
50586;DHT22;36542;51.700;8.846;2022-10-20T07:48:37;9.10;99.90
50586;DHT22;36542;51.700;8.846;2022-10-20T07:53:53;9.40;99.90
50586;DHT22;36542;51.700;8.846;2022-10-20T07:56:18;9.60;99.90
50586;DHT22;36542;51.700;8.846;2022-10-20T07:58:45;9.70;99.90
50586;DHT22;36542;51.700;8.846;2022-10-20T08:01:11;9.70;99.90
50586;DHT22;36542;51.700;8.846;2022-10-20T08:03:37;9.80;99.90
50586;DHT22;36542;51.700;8.846;2022-10-20T08:06:03;9.70;99.90
50586;DHT22;36542;51.700;8.846;2022-10-20T08:08:29;9.80;99.90
50586;DHT22;36542;51.700;8.846;2022-10-20T08:10:55;9.90;99.90
50586;DHT22;36542;51.700;8.846;2022-10-20T08:13:23;10.00;99.90
50586;DHT22;36542;51.700;8.846;2022-10-20T08:15:48;10.10;99.90
50586;DHT22;36542;51.700;8.846;2022-10-20T08:18:14;10.20;99.90
50586;DHT22;36542;51.700;8.846;2022-10-20T08:20:39;10.20;99.90
50586;DHT22;36542;51.700;8.846;2022-10-20T08:23:05;10.30;99.90
50586;DHT22;36542;51.700;8.846;2022-10-20T08:25:30;10.30;99.90
50586;DHT22;36542;51.700;8.846;2022-10-20T08:27:56;10.40;99.90
50586;DHT22;36542;51.700;8.846;2022-10-20T08:30:21;10.50;99.90
50586;DHT22;36542;51.700;8.846;2022-10-20T08:32:50;10.50;99.90
50586;DHT22;36542;51.700;8.846;2022-10-20T08:35:17;10.60;99.90
50586;DHT22;36542;51.700;8.846;2022-10-20T08:37:42;10.60;99.90
50586;DHT22;36542;51.700;8.846;2022-10-20T08:40:11;10.60;99.90
50586;DHT22;36542;51.700;8.846;2022-10-20T08:42:42;10.60;99.90
50586;DHT22;36542;51.700;8.846;2022-10-20T08:45:17;10.60;99.90
50586;DHT22;36542;51.700;8.846;2022-10-20T08:47:44;10.60;99.90
50586;DHT22;36542;51.700;8.846;2022-10-20T08:50:12;10.80;99.90
50586;DHT22;36542;51.700;8.846;2022-10-20T08:52:41;11.00;99.90
50586;DHT22;36542;51.700;8.846;2022-10-20T08:58:12;11.60;99.90
50586;DHT22;36542;51.700;8.846;2022-10-20T09:00:38;11.90;99.90
50586;DHT22;36542;51.700;8.846;2022-10-20T09:03:18;12.10;99.90
50586;DHT22;36542;51.700;8.846;2022-10-20T09:05:50;12.00;99.90
50586;DHT22;36542;51.700;8.846;2022-10-20T09:08:19;12.00;99.90
50586;DHT22;36542;51.700;8.846;2022-10-20T09:10:47;12.00;99.90
50586;DHT22;36542;51.700;8.846;2022-10-20T09:13:26;11.80;99.90
50586;DHT22;36542;51.700;8.846;2022-10-20T09:16:05;11.70;99.90
50586;DHT22;36542;51.700;8.846;2022-10-20T09:18:32;11.90;99.90
50586;DHT22;36542;51.700;8.846;2022-10-20T09:21:18;12.20;99.90
50586;DHT22;36542;51.700;8.846;2022-10-20T09:23:49;12.40;99.90
50586;DHT22;36542;51.700;8.846;2022-10-20T09:26:22;12.90;99.90
50586;DHT22;36542;51.700;8.846;2022-10-20T09:28:50;13.00;99.90
50586;DHT22;36542;51.700;8.846;2022-10-20T09:33:57;13.20;99.90
50586;DHT22;36542;51.700;8.846;2022-10-20T09:36:32;12.90;99.90
50586;DHT22;36542;51.700;8.846;2022-10-20T09:38:59;13.30;99.90
50586;DHT22;36542;51.700;8.846;2022-10-20T09:41:29;13.30;99.90
50586;DHT22;36542;51.700;8.846;2022-10-20T09:43:59;13.10;99.90
50586;DHT22;36542;51.700;8.846;2022-10-20T09:46:29;12.80;99.90
50586;DHT22;36542;51.700;8.846;2022-10-20T09:48:55;12.40;99.90
50586;DHT22;36542;51.700;8.846;2022-10-20T09:51:25;12.20;99.90
50586;DHT22;36542;51.700;8.846;2022-10-20T09:53:57;12.20;99.90
50586;DHT22;36542;51.700;8.846;2022-10-20T09:56:29;12.20;99.90
50586;DHT22;36542;51.700;8.846;2022-10-20T09:58:58;12.30;99.90
50586;DHT22;36542;51.700;8.846;2022-10-20T10:01:24;12.30;99.90
50586;DHT22;36542;51.700;8.846;2022-10-20T10:03:51;12.30;99.90
50586;DHT22;36542;51.700;8.846;2022-10-20T10:09:03;12.50;99.90
50586;DHT22;36542;51.700;8.846;2022-10-20T10:12:13;12.50;99.90
50586;DHT22;36542;51.700;8.846;2022-10-20T10:15:04;12.60;99.90
50586;DHT22;36542;51.700;8.846;2022-10-20T10:17:36;13.00;99.90
50586;DHT22;36542;51.700;8.846;2022-10-20T10:20:49;13.30;99.90
50586;DHT22;36542;51.700;8.846;2022-10-20T10:22:50;13.70;99.90
50586;DHT22;36542;51.700;8.846;2022-10-20T10:25:25;14.20;99.90
50586;DHT22;36542;51.700;8.846;2022-10-20T10:28:07;14.20;99.90
50586;DHT22;36542;51.700;8.846;2022-10-20T10:30:44;14.10;99.90
50586;DHT22;36542;51.700;8.846;2022-10-20T10:33:25;13.80;99.90
50586;DHT22;36542;51.700;8.846;2022-10-20T10:35:51;13.40;99.90
50586;DHT22;36542;51.700;8.846;2022-10-20T10:38:17;12.90;99.90
50586;DHT22;36542;51.700;8.846;2022-10-20T10:46:06;12.20;99.90
50586;DHT22;36542;51.700;8.846;2022-10-20T10:51:41;12.10;99.90
50586;DHT22;36542;51.700;8.846;2022-10-20T10:54:47;12.10;99.90
50586;DHT22;36542;51.700;8.846;2022-10-20T10:57:29;12.20;99.90
50586;DHT22;36542;51.700;8.846;2022-10-20T10:59:59;12.20;99.90
50586;DHT22;36542;51.700;8.846;2022-10-20T11:02:38;12.20;99.90
50586;DHT22;36542;51.700;8.846;2022-10-20T11:07:55;12.30;99.90
50586;DHT22;36542;51.700;8.846;2022-10-20T11:16:00;12.50;99.90
50586;DHT22;36542;51.700;8.846;2022-10-20T11:21:21;12.70;99.90
50586;DHT22;36542;51.700;8.846;2022-10-20T11:24:11;12.90;99.90
50586;DHT22;36542;51.700;8.846;2022-10-20T11:26:42;12.90;99.90
50586;DHT22;36542;51.700;8.846;2022-10-20T11:29:25;13.00;99.90
50586;DHT22;36542;51.700;8.846;2022-10-20T11:40:29;13.50;99.90
50586;DHT22;36542;51.700;8.846;2022-10-20T11:46:00;13.50;99.90
50586;DHT22;36542;51.700;8.846;2022-10-20T12:02:11;13.50;99.90
50586;DHT22;36542;51.700;8.846;2022-10-20T12:16:10;13.30;99.90
50586;DHT22;36542;51.700;8.846;2022-10-20T12:18:36;13.40;99.90
50586;DHT22;36542;51.700;8.846;2022-10-20T12:21:04;13.40;99.90
50586;DHT22;36542;51.700;8.846;2022-10-20T12:28:59;12.80;99.90
50586;DHT22;36542;51.700;8.846;2022-10-20T12:34:39;12.70;99.90
50586;DHT22;36542;51.700;8.846;2022-10-20T12:37:18;12.60;99.90
50586;DHT22;36542;51.700;8.846;2022-10-20T12:39:46;12.50;99.90
50586;DHT22;36542;51.700;8.846;2022-10-20T12:42:26;12.20;99.90
50586;DHT22;36542;51.700;8.846;2022-10-20T12:44:54;11.80;99.90
50586;DHT22;36542;51.700;8.846;2022-10-20T12:47:27;11.60;99.90
50586;DHT22;36542;51.700;8.846;2022-10-20T12:50:19;11.50;99.90
50586;DHT22;36542;51.700;8.846;2022-10-20T12:52:47;11.50;99.90
50586;DHT22;36542;51.700;8.846;2022-10-20T12:55:17;11.50;99.90
50586;DHT22;36542;51.700;8.846;2022-10-20T12:57:44;11.50;99.90
50586;DHT22;36542;51.700;8.846;2022-10-20T13:00:58;11.60;99.90
50586;DHT22;36542;51.700;8.846;2022-10-20T13:02:57;11.70;99.90
50586;DHT22;36542;51.700;8.846;2022-10-20T13:05:45;11.70;99.90
50586;DHT22;36542;51.700;8.846;2022-10-20T13:10:46;11.80;99.90
50586;DHT22;36542;51.700;8.846;2022-10-20T13:15:45;11.70;99.90
50586;DHT22;36542;51.700;8.846;2022-10-20T13:21:00;11.70;99.90
50586;DHT22;36542;51.700;8.846;2022-10-20T13:26:05;11.50;99.90
50586;DHT22;36542;51.700;8.846;2022-10-20T13:28:34;11.50;99.90
50586;DHT22;36542;51.700;8.846;2022-10-20T13:31:35;11.50;99.90
50586;DHT22;36542;51.700;8.846;2022-10-20T13:48:30;11.40;99.90
50586;DHT22;36542;51.700;8.846;2022-10-20T13:51:04;11.40;99.90
50586;DHT22;36542;51.700;8.846;2022-10-20T13:53:33;11.40;99.90
50586;DHT22;36542;51.700;8.846;2022-10-20T13:56:07;11.50;99.90
50586;DHT22;36542;51.700;8.846;2022-10-20T14:01:47;11.50;99.90
50586;DHT22;36542;51.700;8.846;2022-10-20T14:04:35;11.60;99.90
50586;DHT22;36542;51.700;8.846;2022-10-20T14:07:19;11.60;99.90
50586;DHT22;36542;51.700;8.846;2022-10-20T14:09:44;11.60;99.90
50586;DHT22;36542;51.700;8.846;2022-10-20T14:12:11;11.60;99.90
50586;DHT22;36542;51.700;8.846;2022-10-20T14:14:42;11.70;99.90
50586;DHT22;36542;51.700;8.846;2022-10-20T14:17:14;11.70;99.90
50586;DHT22;36542;51.700;8.846;2022-10-20T14:19:41;11.70;99.90
50586;DHT22;36542;51.700;8.846;2022-10-20T14:22:21;11.70;99.90
50586;DHT22;36542;51.700;8.846;2022-10-20T14:24:53;11.80;99.90
50586;DHT22;36542;51.700;8.846;2022-10-20T14:27:29;11.80;99.90
50586;DHT22;36542;51.700;8.846;2022-10-20T14:29:55;11.80;99.90
50586;DHT22;36542;51.700;8.846;2022-10-20T14:32:26;11.90;99.90
50586;DHT22;36542;51.700;8.846;2022-10-20T14:37:53;11.80;99.90
50586;DHT22;36542;51.700;8.846;2022-10-20T14:40:24;11.70;99.90
50586;DHT22;36542;51.700;8.846;2022-10-20T14:42:51;11.60;99.90
50586;DHT22;36542;51.700;8.846;2022-10-20T14:45:19;11.60;99.90
50586;DHT22;36542;51.700;8.846;2022-10-20T14:47:45;11.50;99.90
50586;DHT22;36542;51.700;8.846;2022-10-20T14:52:54;11.30;99.90
50586;DHT22;36542;51.700;8.846;2022-10-20T14:55:30;11.20;99.90
50586;DHT22;36542;51.700;8.846;2022-10-20T14:57:57;11.10;99.90
50586;DHT22;36542;51.700;8.846;2022-10-20T15:00:26;11.00;99.90
50586;DHT22;36542;51.700;8.846;2022-10-20T15:02:52;10.90;99.90
50586;DHT22;36542;51.700;8.846;2022-10-20T15:05:34;10.90;99.90
50586;DHT22;36542;51.700;8.846;2022-10-20T15:08:25;10.90;99.90
50586;DHT22;36542;51.700;8.846;2022-10-20T15:10:51;10.80;99.90
50586;DHT22;36542;51.700;8.846;2022-10-20T15:13:35;10.90;99.90
50586;DHT22;36542;51.700;8.846;2022-10-20T15:16:02;10.80;99.90
50586;DHT22;36542;51.700;8.846;2022-10-20T15:18:28;10.80;99.90
50586;DHT22;36542;51.700;8.846;2022-10-20T15:20:55;10.80;99.90
50586;DHT22;36542;51.700;8.846;2022-10-20T15:23:27;10.80;99.90
50586;DHT22;36542;51.700;8.846;2022-10-20T15:26:01;10.80;99.90
50586;DHT22;36542;51.700;8.846;2022-10-20T15:28:37;10.80;99.90
50586;DHT22;36542;51.700;8.846;2022-10-20T15:33:37;10.80;99.90
50586;DHT22;36542;51.700;8.846;2022-10-20T15:36:09;10.80;99.90
50586;DHT22;36542;51.700;8.846;2022-10-20T15:38:35;10.80;99.90
50586;DHT22;36542;51.700;8.846;2022-10-20T15:41:00;10.80;99.90
50586;DHT22;36542;51.700;8.846;2022-10-20T15:43:26;10.70;99.90
50586;DHT22;36542;51.700;8.846;2022-10-20T15:45:53;10.70;99.90
50586;DHT22;36542;51.700;8.846;2022-10-20T15:48:22;10.70;99.90
50586;DHT22;36542;51.700;8.846;2022-10-20T15:50:51;10.70;99.90
50586;DHT22;36542;51.700;8.846;2022-10-20T15:53:18;10.70;99.90
50586;DHT22;36542;51.700;8.846;2022-10-20T15:55:44;10.70;99.90
50586;DHT22;36542;51.700;8.846;2022-10-20T15:58:09;10.70;99.90
50586;DHT22;36542;51.700;8.846;2022-10-20T16:00:35;10.70;99.90
50586;DHT22;36542;51.700;8.846;2022-10-20T16:03:01;10.70;99.90
50586;DHT22;36542;51.700;8.846;2022-10-20T16:05:27;10.60;99.90
50586;DHT22;36542;51.700;8.846;2022-10-20T16:07:53;10.60;99.90
50586;DHT22;36542;51.700;8.846;2022-10-20T16:10:21;10.60;99.90
50586;DHT22;36542;51.700;8.846;2022-10-20T16:12:48;10.60;99.90
50586;DHT22;36542;51.700;8.846;2022-10-20T16:15:13;10.60;99.90
50586;DHT22;36542;51.700;8.846;2022-10-20T16:17:39;10.60;99.90
50586;DHT22;36542;51.700;8.846;2022-10-20T16:20:05;10.60;99.90
50586;DHT22;36542;51.700;8.846;2022-10-20T16:22:34;10.60;99.90
50586;DHT22;36542;51.700;8.846;2022-10-20T16:25:00;10.60;99.90
50586;DHT22;36542;51.700;8.846;2022-10-20T16:27:27;10.60;99.90
50586;DHT22;36542;51.700;8.846;2022-10-20T16:29:53;10.60;99.90
50586;DHT22;36542;51.700;8.846;2022-10-20T16:32:18;10.60;99.90
50586;DHT22;36542;51.700;8.846;2022-10-20T16:34:44;10.60;99.90
50586;DHT22;36542;51.700;8.846;2022-10-20T16:37:10;10.60;99.90
50586;DHT22;36542;51.700;8.846;2022-10-20T16:39:35;10.60;99.90
50586;DHT22;36542;51.700;8.846;2022-10-20T16:42:01;10.60;99.90
50586;DHT22;36542;51.700;8.846;2022-10-20T16:44:26;10.60;99.90
50586;DHT22;36542;51.700;8.846;2022-10-20T16:46:52;10.60;99.90
50586;DHT22;36542;51.700;8.846;2022-10-20T16:49:17;10.60;99.90
50586;DHT22;36542;51.700;8.846;2022-10-20T16:51:43;10.60;99.90
50586;DHT22;36542;51.700;8.846;2022-10-20T16:54:08;10.60;99.90
50586;DHT22;36542;51.700;8.846;2022-10-20T16:56:34;10.60;99.90
50586;DHT22;36542;51.700;8.846;2022-10-20T16:59:00;10.60;99.90
50586;DHT22;36542;51.700;8.846;2022-10-20T17:01:26;10.60;99.90
50586;DHT22;36542;51.700;8.846;2022-10-20T17:03:52;10.60;99.90
50586;DHT22;36542;51.700;8.846;2022-10-20T17:06:20;10.60;99.90
50586;DHT22;36542;51.700;8.846;2022-10-20T17:08:46;10.60;99.90
50586;DHT22;36542;51.700;8.846;2022-10-20T17:11:19;10.70;99.90
50586;DHT22;36542;51.700;8.846;2022-10-20T17:13:45;10.70;99.90
50586;DHT22;36542;51.700;8.846;2022-10-20T17:16:14;10.70;99.90
50586;DHT22;36542;51.700;8.846;2022-10-20T17:18:40;10.80;99.90
50586;DHT22;36542;51.700;8.846;2022-10-20T17:21:06;10.80;99.90
50586;DHT22;36542;51.700;8.846;2022-10-20T17:23:33;10.80;99.90
50586;DHT22;36542;51.700;8.846;2022-10-20T17:26:00;10.80;99.90
50586;DHT22;36542;51.700;8.846;2022-10-20T17:28:30;10.80;99.90
50586;DHT22;36542;51.700;8.846;2022-10-20T17:30:56;10.80;99.90
50586;DHT22;36542;51.700;8.846;2022-10-20T17:33:31;10.80;99.90
50586;DHT22;36542;51.700;8.846;2022-10-20T17:35:57;10.80;99.90
50586;DHT22;36542;51.700;8.846;2022-10-20T17:38:23;10.70;99.90
50586;DHT22;36542;51.700;8.846;2022-10-20T17:40:49;10.80;99.90
50586;DHT22;36542;51.700;8.846;2022-10-20T17:43:15;10.80;99.90
50586;DHT22;36542;51.700;8.846;2022-10-20T17:45:41;10.80;99.90
50586;DHT22;36542;51.700;8.846;2022-10-20T17:48:07;10.80;99.90
50586;DHT22;36542;51.700;8.846;2022-10-20T17:50:37;10.80;99.90
50586;DHT22;36542;51.700;8.846;2022-10-20T17:53:03;10.80;99.90
50586;DHT22;36542;51.700;8.846;2022-10-20T17:55:28;10.80;99.90
50586;DHT22;36542;51.700;8.846;2022-10-20T17:57:54;10.80;99.90
50586;DHT22;36542;51.700;8.846;2022-10-20T18:00:20;10.70;99.90
50586;DHT22;36542;51.700;8.846;2022-10-20T18:02:47;10.70;99.90